sensor_id;sensor_type;location;lat;lon;timestamp;pressure;altitude;pressure_sealevel;temperature;humidity
13612;BME280;6877;51.436;6.774;2022-09-20T00:01:47;101850.53;;;9.66;94.58
13612;BME280;6877;51.436;6.774;2022-09-20T00:04:18;101847.03;;;9.70;94.22
13612;BME280;6877;51.436;6.774;2022-09-20T00:06:44;101847.94;;;9.77;93.87
13612;BME280;6877;51.436;6.774;2022-09-20T00:09:11;101845.34;;;9.81;93.69
13612;BME280;6877;51.436;6.774;2022-09-20T00:11:40;101848.81;;;9.83;93.40
13612;BME280;6877;51.436;6.774;2022-09-20T00:14:11;101858.44;;;9.87;93.38
13612;BME280;6877;51.436;6.774;2022-09-20T00:16:47;101846.22;;;9.88;93.16
13612;BME280;6877;51.436;6.774;2022-09-20T00:19:28;101847.09;;;9.88;93.15
13612;BME280;6877;51.436;6.774;2022-09-20T00:22:02;101850.59;;;9.87;93.10
13612;BME280;6877;51.436;6.774;2022-09-20T00:24:28;101849.72;;;9.87;93.15
13612;BME280;6877;51.436;6.774;2022-09-20T00:26:54;101845.34;;;9.87;93.12
13612;BME280;6877;51.436;6.774;2022-09-20T00:29:23;101848.81;;;9.89;93.00
13612;BME280;6877;51.436;6.774;2022-09-20T00:31:50;101861.03;;;9.87;93.04
13612;BME280;6877;51.436;6.774;2022-09-20T00:34:17;101851.44;;;9.86;93.04
13612;BME280;6877;51.436;6.774;2022-09-20T00:37:02;101854.94;;;9.88;93.11
13612;BME280;6877;51.436;6.774;2022-09-20T00:39:32;101859.28;;;9.86;93.00
13612;BME280;6877;51.436;6.774;2022-09-20T00:42:04;101862.78;;;9.85;93.16
13612;BME280;6877;51.436;6.774;2022-09-20T00:50:06;101855.81;;;9.81;93.39
13612;BME280;6877;51.436;6.774;2022-09-20T00:52:37;101864.47;;;9.77;93.43
13612;BME280;6877;51.436;6.774;2022-09-20T00:55:07;101867.09;;;9.68;93.60
13612;BME280;6877;51.436;6.774;2022-09-20T00:57:37;101866.22;;;9.66;94.05
13612;BME280;6877;51.436;6.774;2022-09-20T01:00:10;101862.69;;;9.61;93.93
13612;BME280;6877;51.436;6.774;2022-09-20T01:02:51;101855.72;;;9.54;93.98
13612;BME280;6877;51.436;6.774;2022-09-20T01:05:24;101855.72;;;9.50;94.09
13612;BME280;6877;51.436;6.774;2022-09-20T01:07:51;101864.44;;;9.52;94.94
13612;BME280;6877;51.436;6.774;2022-09-20T01:10:24;101857.44;;;9.51;95.04
13612;BME280;6877;51.436;6.774;2022-09-20T01:12:52;101860.94;;;9.54;95.23
13612;BME280;6877;51.436;6.774;2022-09-20T01:15:20;101865.31;;;9.53;94.96
13612;BME280;6877;51.436;6.774;2022-09-20T01:17:54;101859.22;;;9.52;94.80
13612;BME280;6877;51.436;6.774;2022-09-20T01:20:29;101858.31;;;9.55;95.37
13612;BME280;6877;51.436;6.774;2022-09-20T01:26:19;101865.25;;;9.42;95.10
13612;BME280;6877;51.436;6.774;2022-09-20T01:31:45;101864.34;;;9.31;95.96
13612;BME280;6877;51.436;6.774;2022-09-20T01:34:35;101863.41;;;9.18;95.89
13612;BME280;6877;51.436;6.774;2022-09-20T01:40:23;101866.84;;;9.10;96.96
13612;BME280;6877;51.436;6.774;2022-09-20T01:43:10;101865.03;;;8.98;96.78
13612;BME280;6877;51.436;6.774;2022-09-20T01:45:48;101862.41;;;8.96;97.91
13612;BME280;6877;51.436;6.774;2022-09-20T01:48:33;101859.78;;;8.90;97.57
13612;BME280;6877;51.436;6.774;2022-09-20T02:00:14;101869.38;;;8.93;98.44
13612;BME280;6877;51.436;6.774;2022-09-20T02:11:01;101868.59;;;9.12;98.65
13612;BME280;6877;51.436;6.774;2022-09-20T02:19:25;101856.53;;;9.42;98.47
13612;BME280;6877;51.436;6.774;2022-09-20T02:22:37;101853.06;;;9.43;98.05
13612;BME280;6877;51.436;6.774;2022-09-20T02:30:46;101857.50;;;9.67;97.72
13612;BME280;6877;51.436;6.774;2022-09-20T02:42:37;101840.13;;;9.87;96.36
13612;BME280;6877;51.436;6.774;2022-09-20T02:47:43;101839.22;;;9.76;96.22
13612;BME280;6877;51.436;6.774;2022-09-20T02:55:48;101844.44;;;9.71;96.72
13612;BME280;6877;51.436;6.774;2022-09-20T03:14:41;101856.63;;;9.74;96.76
13612;BME280;6877;51.436;6.774;2022-09-20T03:17:51;101867.97;;;9.70;96.71
13612;BME280;6877;51.436;6.774;2022-09-20T03:23:38;101863.59;;;9.67;97.19
13612;BME280;6877;51.436;6.774;2022-09-20T03:26:45;101861.00;;;9.69;97.19
13612;BME280;6877;51.436;6.774;2022-09-20T03:32:21;101858.38;;;9.72;97.17
13612;BME280;6877;51.436;6.774;2022-09-20T03:46:40;101855.78;;;9.86;96.68
13612;BME280;6877;51.436;6.774;2022-09-20T03:49:34;101849.72;;;9.88;96.52
13612;BME280;6877;51.436;6.774;2022-09-20T03:52:29;101861.91;;;9.91;96.49
13612;BME280;6877;51.436;6.774;2022-09-20T03:55:18;101860.19;;;9.94;96.56
13612;BME280;6877;51.436;6.774;2022-09-20T04:03:27;101858.47;;;10.07;95.61
13612;BME280;6877;51.436;6.774;2022-09-20T04:14:22;101859.31;;;10.08;95.57
13612;BME280;6877;51.436;6.774;2022-09-20T04:19:51;101854.97;;;10.08;95.28
13612;BME280;6877;51.436;6.774;2022-09-20T04:22:23;101854.09;;;10.06;95.25
13612;BME280;6877;51.436;6.774;2022-09-20T04:25:28;101851.47;;;10.05;95.15
13612;BME280;6877;51.436;6.774;2022-09-20T04:28:04;101857.59;;;10.07;95.26
13612;BME280;6877;51.436;6.774;2022-09-20T04:30:37;101850.63;;;10.09;95.27
13612;BME280;6877;51.436;6.774;2022-09-20T04:33:19;101854.09;;;10.08;95.17
13612;BME280;6877;51.436;6.774;2022-09-20T04:36:16;101857.56;;;10.08;95.08
13612;BME280;6877;51.436;6.774;2022-09-20T04:45:34;101863.69;;;10.10;94.89
13612;BME280;6877;51.436;6.774;2022-09-20T04:56:40;101861.06;;;10.18;94.83
13612;BME280;6877;51.436;6.774;2022-09-20T05:16:21;101888.13;;;10.20;94.30
13612;BME280;6877;51.436;6.774;2022-09-20T05:19:08;101885.50;;;10.20;94.29
13612;BME280;6877;51.436;6.774;2022-09-20T05:21:51;101885.50;;;10.20;94.49
13612;BME280;6877;51.436;6.774;2022-09-20T05:27:36;101885.50;;;10.20;94.27
13612;BME280;6877;51.436;6.774;2022-09-20T05:36:00;101896.88;;;10.28;93.59
13612;BME280;6877;51.436;6.774;2022-09-20T05:41:55;101896.00;;;10.32;93.13
13612;BME280;6877;51.436;6.774;2022-09-20T05:47:44;101898.63;;;10.35;93.26
13612;BME280;6877;51.436;6.774;2022-09-20T05:50:57;101905.59;;;10.36;92.93
13612;BME280;6877;51.436;6.774;2022-09-20T05:56:23;101910.00;;;10.43;92.75
13612;BME280;6877;51.436;6.774;2022-09-20T06:02:12;101897.75;;;10.52;91.95
13612;BME280;6877;51.436;6.774;2022-09-20T06:05:16;101908.22;;;10.61;91.44
13612;BME280;6877;51.436;6.774;2022-09-20T06:08:17;101903.88;;;10.60;91.46
13612;BME280;6877;51.436;6.774;2022-09-20T06:11:12;101907.38;;;10.63;91.27
13612;BME280;6877;51.436;6.774;2022-09-20T06:14:11;101909.97;;;10.68;91.16
13612;BME280;6877;51.436;6.774;2022-09-20T06:20:33;101917.81;;;10.86;90.69
13612;BME280;6877;51.436;6.774;2022-09-20T06:23:03;101916.94;;;10.94;90.41
13612;BME280;6877;51.436;6.774;2022-09-20T06:26:15;101924.78;;;11.00;90.20
13612;BME280;6877;51.436;6.774;2022-09-20T06:28:49;101921.28;;;11.08;90.15
13612;BME280;6877;51.436;6.774;2022-09-20T06:31:17;101922.13;;;11.18;89.54
13612;BME280;6877;51.436;6.774;2022-09-20T06:34:02;101931.69;;;11.28;89.39
13612;BME280;6877;51.436;6.774;2022-09-20T06:36:32;101936.91;;;11.37;88.56
13612;BME280;6877;51.436;6.774;2022-09-20T06:42:32;101933.38;;;11.57;87.53
13612;BME280;6877;51.436;6.774;2022-09-20T06:44:58;101936.72;;;11.91;86.19
13612;BME280;6877;51.436;6.774;2022-09-20T06:47:24;101940.78;;;12.46;85.32
13612;BME280;6877;51.436;6.774;2022-09-20T06:49:57;101928.38;;;12.65;82.51
13612;BME280;6877;51.436;6.774;2022-09-20T06:52:25;101934.69;;;12.41;81.92
13612;BME280;6877;51.436;6.774;2022-09-20T06:54:54;101936.69;;;12.03;82.60
13612;BME280;6877;51.436;6.774;2022-09-20T06:57:32;101935.91;;;11.72;83.86
13612;BME280;6877;51.436;6.774;2022-09-20T06:59:59;101929.91;;;11.52;84.64
13612;BME280;6877;51.436;6.774;2022-09-20T07:02:25;101936.06;;;11.39;85.46
13612;BME280;6877;51.436;6.774;2022-09-20T07:04:57;101936.09;;;11.29;85.58
13612;BME280;6877;51.436;6.774;2022-09-20T07:07:24;101937.81;;;11.27;86.34
13612;BME280;6877;51.436;6.774;2022-09-20T07:09:50;101935.22;;;11.32;86.38
13612;BME280;6877;51.436;6.774;2022-09-20T07:12:17;101943.91;;;11.51;85.63
13612;BME280;6877;51.436;6.774;2022-09-20T07:14:49;101945.56;;;11.70;84.64
13612;BME280;6877;51.436;6.774;2022-09-20T07:17:15;101941.16;;;11.77;83.61
13612;BME280;6877;51.436;6.774;2022-09-20T07:19:49;101951.63;;;11.85;83.53
13612;BME280;6877;51.436;6.774;2022-09-20T07:22:21;101941.94;;;12.02;83.64
13612;BME280;6877;51.436;6.774;2022-09-20T07:24:47;101942.63;;;12.32;83.24
13612;BME280;6877;51.436;6.774;2022-09-20T07:27:16;101954.69;;;12.57;81.97
13612;BME280;6877;51.436;6.774;2022-09-20T07:29:49;101956.41;;;12.64;80.19
13612;BME280;6877;51.436;6.774;2022-09-20T07:32:28;101957.25;;;12.66;80.36
13612;BME280;6877;51.436;6.774;2022-09-20T07:34:56;101949.25;;;12.82;79.63
13612;BME280;6877;51.436;6.774;2022-09-20T07:37:30;101945.53;;;13.04;79.16
13612;BME280;6877;51.436;6.774;2022-09-20T07:39:56;101943.50;;;13.37;78.49
13612;BME280;6877;51.436;6.774;2022-09-20T07:42:28;101928.41;;;13.53;77.39
13612;BME280;6877;51.436;6.774;2022-09-20T07:45:02;101927.44;;;13.60;76.29
13612;BME280;6877;51.436;6.774;2022-09-20T07:47:34;101933.38;;;13.76;76.83
13612;BME280;6877;51.436;6.774;2022-09-20T07:50:03;101951.53;;;13.96;73.78
13612;BME280;6877;51.436;6.774;2022-09-20T07:52:44;101950.88;;;15.44;69.98
13612;BME280;6877;51.436;6.774;2022-09-20T07:55:11;101960.38;;;17.08;61.81
13612;BME280;6877;51.436;6.774;2022-09-20T07:57:37;101965.72;;;17.70;60.06
13612;BME280;6877;51.436;6.774;2022-09-20T08:00:07;101957.41;;;17.20;58.99
13612;BME280;6877;51.436;6.774;2022-09-20T08:02:40;101962.03;;;17.45;60.19
13612;BME280;6877;51.436;6.774;2022-09-20T08:05:10;101961.22;;;18.60;57.92
13612;BME280;6877;51.436;6.774;2022-09-20T08:07:37;101954.72;;;19.21;53.38
13612;BME280;6877;51.436;6.774;2022-09-20T08:10:07;101956.72;;;19.88;51.46
13612;BME280;6877;51.436;6.774;2022-09-20T08:12:34;101963.38;;;20.44;47.97
13612;BME280;6877;51.436;6.774;2022-09-20T08:15:01;101958.13;;;20.65;47.95
13612;BME280;6877;51.436;6.774;2022-09-20T08:17:27;101970.47;;;22.45;43.88
13612;BME280;6877;51.436;6.774;2022-09-20T08:19:56;101972.94;;;22.31;43.24
13612;BME280;6877;51.436;6.774;2022-09-20T08:22:22;101968.88;;;22.77;41.31
13612;BME280;6877;51.436;6.774;2022-09-20T08:24:49;101966.69;;;23.03;40.74
13612;BME280;6877;51.436;6.774;2022-09-20T08:27:22;101978.25;;;21.74;43.89
13612;BME280;6877;51.436;6.774;2022-09-20T08:29:53;101969.06;;;20.79;46.09
13612;BME280;6877;51.436;6.774;2022-09-20T08:32:27;101972.44;;;22.04;43.33
13612;BME280;6877;51.436;6.774;2022-09-20T08:34:58;101973.03;;;21.32;45.07
13612;BME280;6877;51.436;6.774;2022-09-20T08:37:32;101969.78;;;22.04;43.59
13612;BME280;6877;51.436;6.774;2022-09-20T08:40:10;101970.28;;;24.81;38.43
13612;BME280;6877;51.436;6.774;2022-09-20T08:42:38;101963.56;;;23.45;38.13
13612;BME280;6877;51.436;6.774;2022-09-20T08:45:17;101971.91;;;21.37;43.14
13612;BME280;6877;51.436;6.774;2022-09-20T08:47:55;101979.44;;;19.24;47.43
13612;BME280;6877;51.436;6.774;2022-09-20T08:50:22;101987.66;;;17.75;51.81
13612;BME280;6877;51.436;6.774;2022-09-20T08:52:56;101982.75;;;16.57;55.91
13612;BME280;6877;51.436;6.774;2022-09-20T08:55:30;101987.94;;;16.23;57.37
13612;BME280;6877;51.436;6.774;2022-09-20T08:57:58;101979.56;;;16.06;57.72
13612;BME280;6877;51.436;6.774;2022-09-20T09:00:32;101981.66;;;15.88;58.04
13612;BME280;6877;51.436;6.774;2022-09-20T09:03:04;101983.16;;;15.57;58.63
13612;BME280;6877;51.436;6.774;2022-09-20T09:08:28;101986.16;;;15.38;59.66
13612;BME280;6877;51.436;6.774;2022-09-20T09:11:07;101987.56;;;15.58;59.19
13612;BME280;6877;51.436;6.774;2022-09-20T09:13:53;101997.63;;;15.82;59.11
13612;BME280;6877;51.436;6.774;2022-09-20T09:16:25;101987.50;;;16.04;58.71
13612;BME280;6877;51.436;6.774;2022-09-20T09:18:52;101993.34;;;16.18;58.12
13612;BME280;6877;51.436;6.774;2022-09-20T09:21:23;101995.47;;;16.03;58.71
13612;BME280;6877;51.436;6.774;2022-09-20T09:24:04;101991.66;;;15.74;59.66
13612;BME280;6877;51.436;6.774;2022-09-20T09:26:39;101993.38;;;15.77;60.54
13612;BME280;6877;51.436;6.774;2022-09-20T09:29:18;101987.94;;;16.23;59.59
13612;BME280;6877;51.436;6.774;2022-09-20T09:31:49;101996.03;;;16.56;57.63
13612;BME280;6877;51.436;6.774;2022-09-20T09:34:32;101996.63;;;16.67;56.69
13612;BME280;6877;51.436;6.774;2022-09-20T09:37:03;101989.97;;;16.51;56.83
13612;BME280;6877;51.436;6.774;2022-09-20T09:39:40;101977.50;;;17.27;56.48
13612;BME280;6877;51.436;6.774;2022-09-20T09:42:24;101982.66;;;18.25;50.31
13612;BME280;6877;51.436;6.774;2022-09-20T09:45:26;101977.78;;;17.82;52.12
13612;BME280;6877;51.436;6.774;2022-09-20T09:48:24;101974.84;;;17.27;52.37
13612;BME280;6877;51.436;6.774;2022-09-20T09:51:20;101975.53;;;16.28;53.46
13612;BME280;6877;51.436;6.774;2022-09-20T09:53:48;101983.25;;;15.52;58.91
13612;BME280;6877;51.436;6.774;2022-09-20T10:04:41;101992.25;;;13.64;72.64
13612;BME280;6877;51.436;6.774;2022-09-20T10:07:26;101987.00;;;13.64;74.90
13612;BME280;6877;51.436;6.774;2022-09-20T10:15:40;101985.84;;;14.54;69.00
13612;BME280;6877;51.436;6.774;2022-09-20T10:27:09;101976.09;;;20.59;46.82
13612;BME280;6877;51.436;6.774;2022-09-20T10:29:54;101973.72;;;19.59;47.82
13612;BME280;6877;51.436;6.774;2022-09-20T10:32:50;101971.19;;;19.06;48.50
13612;BME280;6877;51.436;6.774;2022-09-20T10:38:12;101979.66;;;19.67;45.40
13612;BME280;6877;51.436;6.774;2022-09-20T10:41:01;101973.75;;;19.83;44.56
13612;BME280;6877;51.436;6.774;2022-09-20T10:46:50;101970.50;;;19.98;44.80
13612;BME280;6877;51.436;6.774;2022-09-20T10:52:04;101963.97;;;23.55;37.49
13612;BME280;6877;51.436;6.774;2022-09-20T11:01:15;101966.06;;;24.46;33.49
13612;BME280;6877;51.436;6.774;2022-09-20T11:09:30;101972.16;;;20.90;39.62
13612;BME280;6877;51.436;6.774;2022-09-20T11:12:23;101979.13;;;21.93;37.88
13612;BME280;6877;51.436;6.774;2022-09-20T11:15:25;101979.34;;;21.29;39.28
13612;BME280;6877;51.436;6.774;2022-09-20T11:18:06;101979.53;;;20.18;40.61
13612;BME280;6877;51.436;6.774;2022-09-20T11:20:44;101981.16;;;19.50;43.19
13612;BME280;6877;51.436;6.774;2022-09-20T11:26:41;101990.00;;;18.44;46.76
13612;BME280;6877;51.436;6.774;2022-09-20T11:29:26;101989.06;;;17.89;47.16
13612;BME280;6877;51.436;6.774;2022-09-20T11:32:14;101987.41;;;18.14;47.56
13612;BME280;6877;51.436;6.774;2022-09-20T11:35:00;101986.75;;;18.06;46.95
13612;BME280;6877;51.436;6.774;2022-09-20T11:37:37;101989.75;;;17.95;48.34
13612;BME280;6877;51.436;6.774;2022-09-20T11:40:21;101988.41;;;18.10;46.93
13612;BME280;6877;51.436;6.774;2022-09-20T11:42:50;101997.53;;;18.29;46.71
13612;BME280;6877;51.436;6.774;2022-09-20T11:45:19;101992.94;;;18.35;46.55
13612;BME280;6877;51.436;6.774;2022-09-20T11:47:56;101991.97;;;18.09;45.78
13612;BME280;6877;51.436;6.774;2022-09-20T11:56:07;101988.66;;;18.87;45.23
13612;BME280;6877;51.436;6.774;2022-09-20T11:58:50;101988.91;;;19.06;44.64
13612;BME280;6877;51.436;6.774;2022-09-20T12:01:33;101986.41;;;19.01;43.93
13612;BME280;6877;51.436;6.774;2022-09-20T12:04:32;101985.25;;;18.83;43.45
13612;BME280;6877;51.436;6.774;2022-09-20T12:09:59;101993.75;;;18.38;45.51
13612;BME280;6877;51.436;6.774;2022-09-20T12:12:39;101986.47;;;18.15;47.05
13612;BME280;6877;51.436;6.774;2022-09-20T12:15:42;101990.50;;;17.99;47.88
13612;BME280;6877;51.436;6.774;2022-09-20T12:21:02;101985.03;;;18.05;48.08
13612;BME280;6877;51.436;6.774;2022-09-20T12:26:08;101994.16;;;17.95;47.91
13612;BME280;6877;51.436;6.774;2022-09-20T12:28:44;101989.38;;;17.76;47.77
13612;BME280;6877;51.436;6.774;2022-09-20T12:36:29;101984.31;;;17.69;47.84
13612;BME280;6877;51.436;6.774;2022-09-20T12:39:13;101977.59;;;17.55;48.30
13612;BME280;6877;51.436;6.774;2022-09-20T13:09:08;101981.31;;;17.50;44.09
13612;BME280;6877;51.436;6.774;2022-09-20T13:11:49;101974.53;;;17.05;45.96
13612;BME280;6877;51.436;6.774;2022-09-20T13:14:23;101975.31;;;16.75;47.14
13612;BME280;6877;51.436;6.774;2022-09-20T13:17:11;101969.94;;;16.79;47.71
13612;BME280;6877;51.436;6.774;2022-09-20T13:19:49;101965.97;;;16.96;47.49
13612;BME280;6877;51.436;6.774;2022-09-20T13:22:27;101972.34;;;17.21;47.02
13612;BME280;6877;51.436;6.774;2022-09-20T13:25:03;101974.44;;;17.43;46.74
13612;BME280;6877;51.436;6.774;2022-09-20T13:27:47;101968.88;;;17.52;45.54
13612;BME280;6877;51.436;6.774;2022-09-20T13:30:24;101974.16;;;17.53;44.70
13612;BME280;6877;51.436;6.774;2022-09-20T13:32:52;101966.25;;;17.52;44.29
13612;BME280;6877;51.436;6.774;2022-09-20T13:35:27;101967.69;;;17.62;42.80
13612;BME280;6877;51.436;6.774;2022-09-20T13:38:01;101967.00;;;17.88;43.46
13612;BME280;6877;51.436;6.774;2022-09-20T13:40:33;101971.72;;;18.35;42.49
13612;BME280;6877;51.436;6.774;2022-09-20T13:43:03;101958.63;;;18.58;41.47
13612;BME280;6877;51.436;6.774;2022-09-20T13:45:34;101957.44;;;18.95;41.69
13612;BME280;6877;51.436;6.774;2022-09-20T13:48:08;101963.34;;;19.03;40.33
13612;BME280;6877;51.436;6.774;2022-09-20T13:50:56;101953.91;;;18.94;41.99
13612;BME280;6877;51.436;6.774;2022-09-20T13:53:33;101957.66;;;18.89;43.35
13612;BME280;6877;51.436;6.774;2022-09-20T13:56:09;101958.34;;;18.39;44.97
13612;BME280;6877;51.436;6.774;2022-09-20T13:58:37;101963.81;;;18.06;45.84
13612;BME280;6877;51.436;6.774;2022-09-20T14:01:27;101962.66;;;17.86;46.94
13612;BME280;6877;51.436;6.774;2022-09-20T14:03:58;101964.19;;;17.30;48.40
13612;BME280;6877;51.436;6.774;2022-09-20T14:06:26;101955.47;;;16.92;49.65
13612;BME280;6877;51.436;6.774;2022-09-20T14:08:55;101970.25;;;16.65;50.47
13612;BME280;6877;51.436;6.774;2022-09-20T14:11:30;101972.81;;;16.31;51.07
13612;BME280;6877;51.436;6.774;2022-09-20T14:14:01;101974.41;;;15.99;51.81
13612;BME280;6877;51.436;6.774;2022-09-20T14:16:38;101971.16;;;15.85;51.96
13612;BME280;6877;51.436;6.774;2022-09-20T14:19:06;101974.03;;;15.74;52.55
13612;BME280;6877;51.436;6.774;2022-09-20T14:21:43;101969.69;;;15.72;52.79
13612;BME280;6877;51.436;6.774;2022-09-20T14:24:22;101976.78;;;15.70;52.87
13612;BME280;6877;51.436;6.774;2022-09-20T14:27:19;101967.19;;;15.64;52.84
13612;BME280;6877;51.436;6.774;2022-09-20T14:29:57;101970.81;;;15.57;53.19
13612;BME280;6877;51.436;6.774;2022-09-20T14:32:42;101972.72;;;15.52;53.74
13612;BME280;6877;51.436;6.774;2022-09-20T14:35:18;101973.75;;;15.43;53.78
13612;BME280;6877;51.436;6.774;2022-09-20T14:37:50;101974.66;;;15.42;54.15
13612;BME280;6877;51.436;6.774;2022-09-20T14:40:52;101970.25;;;15.41;54.33
13612;BME280;6877;51.436;6.774;2022-09-20T14:43:30;101976.28;;;15.49;53.48
13612;BME280;6877;51.436;6.774;2022-09-20T14:46:02;101977.06;;;15.53;53.63
13612;BME280;6877;51.436;6.774;2022-09-20T14:48:35;101975.06;;;15.66;53.36
13612;BME280;6877;51.436;6.774;2022-09-20T14:56:35;101969.75;;;16.11;52.02
13612;BME280;6877;51.436;6.774;2022-09-20T15:02:17;101974.19;;;16.09;52.09
13612;BME280;6877;51.436;6.774;2022-09-20T15:04:55;101976.91;;;16.06;52.69
13612;BME280;6877;51.436;6.774;2022-09-20T15:07:29;101974.13;;;16.12;52.37
13612;BME280;6877;51.436;6.774;2022-09-20T15:09:59;101979.56;;;16.06;52.61
13612;BME280;6877;51.436;6.774;2022-09-20T15:12:26;101976.13;;;16.02;52.56
13612;BME280;6877;51.436;6.774;2022-09-20T15:15:13;101974.72;;;15.84;52.79
13612;BME280;6877;51.436;6.774;2022-09-20T15:17:58;101974.72;;;15.84;52.16
13612;BME280;6877;51.436;6.774;2022-09-20T15:20:28;101975.41;;;15.94;52.35
13612;BME280;6877;51.436;6.774;2022-09-20T15:22:57;101976.19;;;15.97;52.18
13612;BME280;6877;51.436;6.774;2022-09-20T15:25:28;101982.31;;;15.99;51.97
13612;BME280;6877;51.436;6.774;2022-09-20T15:27:55;101976.97;;;16.03;52.41
13612;BME280;6877;51.436;6.774;2022-09-20T15:30:25;101972.44;;;16.09;51.83
13612;BME280;6877;51.436;6.774;2022-09-20T15:32:57;101974.75;;;16.23;51.37
13612;BME280;6877;51.436;6.774;2022-09-20T15:35:27;101970.69;;;16.45;50.61
13612;BME280;6877;51.436;6.774;2022-09-20T15:38:07;101972.09;;;16.62;49.48
13612;BME280;6877;51.436;6.774;2022-09-20T15:40:40;101966.53;;;16.73;49.64
13612;BME280;6877;51.436;6.774;2022-09-20T15:43:18;101962.72;;;16.86;49.50
13612;BME280;6877;51.436;6.774;2022-09-20T15:45:51;101967.13;;;16.85;49.34
13612;BME280;6877;51.436;6.774;2022-09-20T15:48:23;101959.19;;;16.85;49.17
13612;BME280;6877;51.436;6.774;2022-09-20T15:51:07;101954.44;;;17.00;49.10
13612;BME280;6877;51.436;6.774;2022-09-20T15:53:39;101966.44;;;17.13;49.48
13612;BME280;6877;51.436;6.774;2022-09-20T15:58:55;101963.41;;;16.92;50.29
13612;BME280;6877;51.436;6.774;2022-09-20T16:01:26;101969.25;;;16.69;50.92
13612;BME280;6877;51.436;6.774;2022-09-20T16:04:06;101967.81;;;16.19;52.13
13612;BME280;6877;51.436;6.774;2022-09-20T16:06:36;101968.22;;;16.01;52.81
13612;BME280;6877;51.436;6.774;2022-09-20T16:09:03;101974.03;;;15.74;53.36
13612;BME280;6877;51.436;6.774;2022-09-20T16:11:35;101981.38;;;15.59;54.46
13612;BME280;6877;51.436;6.774;2022-09-20T16:14:02;101978.91;;;15.49;55.01
13612;BME280;6877;51.436;6.774;2022-09-20T16:16:38;101978.28;;;15.35;55.61
13612;BME280;6877;51.436;6.774;2022-09-20T16:19:05;101991.72;;;15.23;56.98
13612;BME280;6877;51.436;6.774;2022-09-20T16:21:55;101976.19;;;15.06;58.03
13612;BME280;6877;51.436;6.774;2022-09-20T16:24:35;101988.81;;;14.87;59.09
13612;BME280;6877;51.436;6.774;2022-09-20T16:27:22;101993.50;;;14.70;59.09
13612;BME280;6877;51.436;6.774;2022-09-20T16:29:49;101998.00;;;14.62;59.27
13612;BME280;6877;51.436;6.774;2022-09-20T16:32:18;101998.09;;;14.55;60.14
13612;BME280;6877;51.436;6.774;2022-09-20T16:34:50;102007.81;;;14.52;60.32
13612;BME280;6877;51.436;6.774;2022-09-20T16:37:27;102007.88;;;14.46;61.11
13612;BME280;6877;51.436;6.774;2022-09-20T16:39:58;102008.00;;;14.38;61.17
13612;BME280;6877;51.436;6.774;2022-09-20T16:42:33;102008.03;;;14.33;61.34
13612;BME280;6877;51.436;6.774;2022-09-20T16:45:03;102008.09;;;14.30;61.55
13612;BME280;6877;51.436;6.774;2022-09-20T16:47:30;102011.66;;;14.26;62.11
13612;BME280;6877;51.436;6.774;2022-09-20T16:50:00;102011.75;;;14.20;62.20
13612;BME280;6877;51.436;6.774;2022-09-20T16:52:43;102012.66;;;14.18;62.38
13612;BME280;6877;51.436;6.774;2022-09-20T16:55:10;102011.81;;;14.14;62.54
13612;BME280;6877;51.436;6.774;2022-09-20T16:57:38;102004.88;;;14.08;62.83
13612;BME280;6877;51.436;6.774;2022-09-20T17:00:05;102003.19;;;14.04;63.26
13612;BME280;6877;51.436;6.774;2022-09-20T17:02:49;102012.09;;;13.94;63.66
13612;BME280;6877;51.436;6.774;2022-09-20T17:05:18;102013.03;;;13.87;63.66
13612;BME280;6877;51.436;6.774;2022-09-20T17:07:45;102010.53;;;13.78;63.84
13612;BME280;6877;51.436;6.774;2022-09-20T17:10:12;102013.28;;;13.68;64.14
13612;BME280;6877;51.436;6.774;2022-09-20T17:12:38;102012.47;;;13.62;64.20
13612;BME280;6877;51.436;6.774;2022-09-20T17:15:10;102022.19;;;13.54;64.55
13612;BME280;6877;51.436;6.774;2022-09-20T17:17:46;102018.78;;;13.44;64.88
13612;BME280;6877;51.436;6.774;2022-09-20T17:20:29;102013.66;;;13.32;65.36
13612;BME280;6877;51.436;6.774;2022-09-20T17:23:04;102016.34;;;13.21;66.03
13612;BME280;6877;51.436;6.774;2022-09-20T17:25:33;102023.47;;;13.08;66.70
13612;BME280;6877;51.436;6.774;2022-09-20T17:28:00;102027.94;;;12.95;67.02
13612;BME280;6877;51.436;6.774;2022-09-20T17:30:28;102026.31;;;12.81;68.02
13612;BME280;6877;51.436;6.774;2022-09-20T17:33:14;102036.06;;;12.65;68.43
13612;BME280;6877;51.436;6.774;2022-09-20T17:35:49;102035.28;;;12.49;69.44
13612;BME280;6877;51.436;6.774;2022-09-20T17:38:16;102037.97;;;12.35;70.13
13612;BME280;6877;51.436;6.774;2022-09-20T17:40:45;102038.94;;;12.20;70.76
13612;BME280;6877;51.436;6.774;2022-09-20T17:43:16;102044.22;;;12.06;71.33
13612;BME280;6877;51.436;6.774;2022-09-20T17:45:43;102043.38;;;12.00;71.94
13612;BME280;6877;51.436;6.774;2022-09-20T17:48:15;102048.66;;;11.95;72.14
13612;BME280;6877;51.436;6.774;2022-09-20T17:50:54;102050.44;;;11.89;72.40
13612;BME280;6877;51.436;6.774;2022-09-20T17:53:25;102059.16;;;11.81;72.73
13612;BME280;6877;51.436;6.774;2022-09-20T17:56:00;102063.56;;;11.73;73.22
13612;BME280;6877;51.436;6.774;2022-09-20T17:58:33;102059.19;;;11.68;73.49
13612;BME280;6877;51.436;6.774;2022-09-20T18:01:15;102050.44;;;11.72;74.08
13612;BME280;6877;51.436;6.774;2022-09-20T18:03:48;102053.94;;;11.71;74.28
13612;BME280;6877;51.436;6.774;2022-09-20T18:06:20;102053.09;;;11.64;74.03
13612;BME280;6877;51.436;6.774;2022-09-20T18:08:52;102060.09;;;11.54;74.68
13612;BME280;6877;51.436;6.774;2022-09-20T18:11:26;102062.72;;;11.50;74.70
13612;BME280;6877;51.436;6.774;2022-09-20T18:14:00;102057.50;;;11.45;75.69
13612;BME280;6877;51.436;6.774;2022-09-20T18:16:27;102072.34;;;11.39;75.44
13612;BME280;6877;51.436;6.774;2022-09-20T18:19:09;102078.44;;;11.28;76.05
13612;BME280;6877;51.436;6.774;2022-09-20T18:21:42;102087.22;;;11.20;76.80
13612;BME280;6877;51.436;6.774;2022-09-20T18:24:10;102081.97;;;11.13;76.87
13612;BME280;6877;51.436;6.774;2022-09-20T18:26:49;102084.56;;;11.04;77.12
13612;BME280;6877;51.436;6.774;2022-09-20T18:29:19;102080.22;;;10.97;77.62